Time;durP1;ratioP1;P1;durP2;ratioP2;P2;SDS_P1;SDS_P2;PMS_P1;PMS_P2;Temp;Humidity;BMP_temperature;BMP_pressure;BME280_temperature;BME280_humidity;BME280_pressure;Samples;Min_cycle;Max_cycle;Signal;HPM_P1;HPM_P2
2023/09/20 00:03:47;;;;;;;;;;;;;;;23.30;48.32;95700.84;10362785;28;1884;-61
2023/09/20 00:08:47;;;;;;;;;;;;;;;23.27;47.96;95693.47;10362450;28;1953;-61
2023/09/20 00:13:48;;;;;;;;;;;;;;;23.28;48.15;95689.78;10360500;28;1958;-59
2023/09/20 00:18:49;;;;;;;;;;;;;;;23.29;48.18;95692.13;10361126;28;1885;-61
2023/09/20 00:23:49;;;;;;;;;;;;;;;23.28;48.03;95687.94;10355585;28;1809;-61
2023/09/20 00:28:49;;;;;;;;;;;;;;;23.28;48.24;95685.28;10355782;28;1985;-60
2023/09/20 00:33:50;;;;;;;;;;;;;;;23.28;48.11;95684.50;10361995;28;2064;-59
2023/09/20 00:38:52;;;;;;;;;;;;;;;23.27;48.16;95681.06;10356005;28;2021;-61
2023/09/20 00:43:53;;;;;;;;;;;;;;;23.28;48.25;95684.50;10344170;28;4603;-60
2023/09/20 00:48:55;;;;;;;;;;;;;;;23.27;48.12;95670.47;10348142;28;1984;-61
2023/09/20 00:54:03;;;;;;;;;;;;;;;23.26;48.21;95674.22;10364016;28;1962;-61
2023/09/20 00:59:06;;;;;;;;;;;;;;;23.26;48.27;95678.72;10342701;28;2023;-60
2023/09/20 01:04:07;;;;;;;;;;;;;;;23.25;47.89;95677.91;10365205;28;1966;-60
2023/09/20 01:09:09;;;;;;;;;;;;;;;23.25;47.86;95687.69;10347107;28;1963;-61
2023/09/20 01:14:10;;;;;;;;;;;;;;;23.24;47.87;95684.28;10356813;28;2007;-61
2023/09/20 01:19:10;;;;;;;;;;;;;;;23.23;48.19;95687.22;10361210;28;2207;-61
2023/09/20 01:24:11;;;;;;;;;;;;;;;23.22;47.91;95693.59;10367492;28;1967;-61
2023/09/20 01:29:12;;;;;;;;;;;;;;;23.21;47.96;95687.50;10354311;28;2448;-60
2023/09/20 01:34:14;;;;;;;;;;;;;;;23.21;48.13;95694.66;10354622;28;2020;-61
2023/09/20 01:39:16;;;;;;;;;;;;;;;23.21;48.19;95695.44;10355339;28;2028;-61
2023/09/20 01:44:19;;;;;;;;;;;;;;;23.20;48.08;95691.25;10346157;28;1929;-60
2023/09/20 01:49:21;;;;;;;;;;;;;;;23.19;48.00;95689.66;10368713;28;2015;-61
2023/09/20 01:54:21;;;;;;;;;;;;;;;23.20;48.07;95693.09;10375644;28;1955;-60
2023/09/20 01:59:21;;;;;;;;;;;;;;;23.18;47.84;95677.53;10365768;28;2162;-61
2023/09/20 02:04:21;;;;;;;;;;;;;;;23.19;47.66;95675.66;10376034;28;1998;-61
2023/09/20 02:09:22;;;;;;;;;;;;;;;23.19;47.98;95673.00;10334149;28;2038;-59
2023/09/20 02:14:22;;;;;;;;;;;;;;;23.17;47.77;95670.66;10360871;28;2396;-60
2023/09/20 02:19:22;;;;;;;;;;;;;;;23.17;47.77;95668.00;10375131;28;2074;-60
2023/09/20 02:24:23;;;;;;;;;;;;;;;23.17;47.66;95672.50;10371992;28;1983;-60
2023/09/20 02:29:23;;;;;;;;;;;;;;;23.16;47.61;95673.59;10368191;28;1903;-60
2023/09/20 02:34:23;;;;;;;;;;;;;;;23.16;47.83;95665.66;10368147;28;1963;-60
2023/09/20 02:39:24;;;;;;;;;;;;;;;23.15;47.69;95667.53;10366934;28;1971;-60
2023/09/20 02:44:24;;;;;;;;;;;;;;;23.16;47.82;95663.03;10356083;28;4608;-61
2023/09/20 02:49:25;;;;;;;;;;;;;;;23.14;47.86;95650.06;10363869;28;1916;-61
2023/09/20 02:54:25;;;;;;;;;;;;;;;23.14;47.71;95651.97;10358190;28;1974;-61
2023/09/20 02:59:25;;;;;;;;;;;;;;;23.13;47.56;95643.22;10368644;28;2590;-61
2023/09/20 03:04:26;;;;;;;;;;;;;;;23.12;47.72;95644.28;10360286;28;1983;-61
2023/09/20 03:09:26;;;;;;;;;;;;;;;23.12;47.84;95646.19;10362063;28;2137;-61
2023/09/20 03:14:33;;;;;;;;;;;;;;;23.11;47.75;95648.03;10366112;28;1917;-61
2023/09/20 03:19:34;;;;;;;;;;;;;;;23.10;47.64;95643.03;10361146;28;1962;-60
2023/09/20 03:24:36;;;;;;;;;;;;;;;23.09;47.62;95639.59;10355869;28;1977;-61
2023/09/20 03:29:36;;;;;;;;;;;;;;;23.10;47.61;95637.75;10327122;28;1990;-60
2023/09/20 03:34:36;;;;;;;;;;;;;;;23.08;47.68;95629.31;10365845;28;2104;-61
2023/09/20 03:39:37;;;;;;;;;;;;;;;23.07;47.72;95628.53;10361477;28;1959;-61
2023/09/20 03:44:39;;;;;;;;;;;;;;;23.07;47.72;95625.09;10356739;28;4647;-62
2023/09/20 03:49:39;;;;;;;;;;;;;;;23.06;47.44;95634.88;10360622;28;1971;-61
2023/09/20 03:54:39;;;;;;;;;;;;;;;23.05;47.50;95633.34;10360123;28;1966;-61
2023/09/20 03:59:41;;;;;;;;;;;;;;;23.04;47.32;95623.81;10354226;28;1986;-60
2023/09/20 04:04:41;;;;;;;;;;;;;;;23.04;47.33;95623.81;10362812;28;2021;-61
2023/09/20 04:09:43;;;;;;;;;;;;;;;23.04;47.68;95633.63;10356439;28;1947;-61
2023/09/20 04:14:43;;;;;;;;;;;;;;;23.03;47.33;95629.41;10356407;28;1979;-61
2023/09/20 04:19:44;;;;;;;;;;;;;;;23.03;47.67;95629.41;10371421;28;1974;-61
2023/09/20 04:24:44;;;;;;;;;;;;;;;23.02;47.38;95633.16;10353892;28;2164;-61
2023/09/20 04:29:45;;;;;;;;;;;;;;;23.01;47.51;95623.63;10366736;28;2541;-60
2023/09/20 04:34:45;;;;;;;;;;;;;;;23.02;47.37;95625.22;10373188;28;1903;-60
2023/09/20 04:39:46;;;;;;;;;;;;;;;23.00;47.21;95622.84;10358766;28;1953;-60
2023/09/20 04:44:46;;;;;;;;;;;;;;;23.00;47.15;95614.91;10355529;28;5053;-61
2023/09/20 04:49:46;;;;;;;;;;;;;;;23.01;47.43;95618.34;10359088;28;2028;-60
2023/09/20 04:54:48;;;;;;;;;;;;;;;23.00;47.32;95614.16;10365906;28;1938;-60
2023/09/20 04:59:50;;;;;;;;;;;;;;;23.00;47.56;95614.16;10367098;28;1923;-61
2023/09/20 05:04:50;;;;;;;;;;;;;;;22.97;47.38;95612.84;10347443;28;2033;-60
2023/09/20 05:09:50;;;;;;;;;;;;;;;22.99;47.31;95623.94;10353653;28;2026;-61
2023/09/20 05:14:50;;;;;;;;;;;;;;;22.98;47.28;95618.94;10329680;28;2531;-60
2023/09/20 05:19:51;;;;;;;;;;;;;;;22.98;47.25;95617.06;10369479;28;1910;-61
2023/09/20 05:24:51;;;;;;;;;;;;;;;22.97;47.52;95623.44;10344769;28;1907;-58
2023/09/20 05:29:52;;;;;;;;;;;;;;;22.98;47.42;95625.00;10357524;28;2051;-61
2023/09/20 05:34:53;;;;;;;;;;;;;;;22.97;47.46;95628.72;10358837;28;1959;-60
2023/09/20 05:39:53;;;;;;;;;;;;;;;22.96;47.44;95627.13;10355563;28;4711;-61
2023/09/20 05:44:55;;;;;;;;;;;;;;;22.96;47.34;95626.34;10365980;28;1966;-60
2023/09/20 05:49:56;;;;;;;;;;;;;;;22.95;47.32;95620.28;10367966;28;1978;-61
2023/09/20 05:54:56;;;;;;;;;;;;;;;22.95;47.62;95630.09;10365549;28;1982;-60
2023/09/20 05:59:57;;;;;;;;;;;;;;;22.94;47.53;95645.16;10360705;28;2586;-60
2023/09/20 06:04:57;;;;;;;;;;;;;;;22.93;47.36;95637.53;10341993;28;2121;-61
2023/09/20 06:09:58;;;;;;;;;;;;;;;22.92;47.44;95634.09;10366670;28;2032;-60
2023/09/20 06:14:58;;;;;;;;;;;;;;;22.92;47.16;95630.66;10366807;28;2264;-61
2023/09/20 06:19:59;;;;;;;;;;;;;;;22.93;47.62;95632.22;10360769;28;2027;-61
2023/09/20 06:24:59;;;;;;;;;;;;;;;22.92;47.32;95631.44;10355787;28;1970;-60
2023/09/20 06:29:59;;;;;;;;;;;;;;;22.93;47.35;95634.88;10343165;28;2046;-61
2023/09/20 06:35:07;;;;;;;;;;;;;;;22.93;47.37;95634.88;10340706;28;2157;-60
2023/09/20 06:40:22;;;;;;;;;;;;;;;22.93;47.62;95626.94;10354357;28;1998;-61
2023/09/20 06:45:24;;;;;;;;;;;;;;;22.93;47.42;95633.03;10340489;28;2476;-61
2023/09/20 06:50:24;;;;;;;;;;;;;;;22.93;47.41;95626.94;10351124;28;1830;-60
2023/09/20 06:55:25;;;;;;;;;;;;;;;22.96;47.56;95627.13;10351931;28;1885;-60
2023/09/20 07:00:25;;;;;;;;;;;;;;;22.95;47.87;95615.00;10340240;28;2070;-60
2023/09/20 07:05:30;;;;;;;;;;;;;;;22.95;47.66;95612.38;10349270;28;1910;-61
2023/09/20 07:10:31;;;;;;;;;;;;;;;22.97;47.65;95609.44;10344045;28;1916;-60
2023/09/20 07:15:34;;;;;;;;;;;;;;;22.97;47.62;95606.78;10341155;28;1860;-60
2023/09/20 07:20:36;;;;;;;;;;;;;;;22.96;47.60;95589.34;10346895;28;1930;-61
2023/09/20 07:25:37;;;;;;;;;;;;;;;22.94;47.41;95591.50;10335529;28;1969;-62
2023/09/20 07:30:40;;;;;;;;;;;;;;;22.93;47.47;95601.31;10339354;28;2561;-61
2023/09/20 07:35:46;;;;;;;;;;;;;;;22.93;47.39;95592.59;10340637;28;1955;-61
2023/09/20 07:40:50;;;;;;;;;;;;;;;22.92;47.34;95598.94;10339255;28;4651;-61
2023/09/20 07:45:50;;;;;;;;;;;;;;;22.90;47.35;95596.59;10337442;28;2038;-61
2023/09/20 07:50:51;;;;;;;;;;;;;;;22.89;47.20;95595.03;10352664;28;1832;-60
2023/09/20 07:55:57;;;;;;;;;;;;;;;22.88;47.25;95587.38;10339705;28;2174;-61
2023/09/20 08:00:58;;;;;;;;;;;;;;;22.88;47.18;95582.09;10340592;28;1861;-60
2023/09/20 08:05:58;;;;;;;;;;;;;;;22.86;47.20;95576.31;10338219;28;2057;-61
2023/09/20 08:10:58;;;;;;;;;;;;;;;22.85;47.08;95570.25;10351549;28;2152;-61
2023/09/20 08:16:00;;;;;;;;;;;;;;;22.88;47.50;95576.81;10330644;28;2451;-61
2023/09/20 08:21:00;;;;;;;;;;;;;;;22.85;47.00;95569.47;10340797;28;1833;-61
2023/09/20 09:03:12;;;;;;;;;;;;;;;22.90;46.92;95548.22;10338270;28;2728;-61
2023/09/20 09:08:13;;;;;;;;;;;;;;;22.90;47.08;95542.94;10307862;28;1915;-61
2023/09/20 09:13:13;;;;;;;;;;;;;;;22.87;46.98;95544.31;10319470;28;1972;-61
2023/09/20 09:18:16;;;;;;;;;;;;;;;22.86;46.89;95537.47;10338358;28;1879;-61
2023/09/20 09:23:32;;;;;;;;;;;;;;;22.87;46.88;95538.25;10354777;28;1850;-61
2023/09/20 09:28:32;;;;;;;;;;;;;;;22.90;47.37;95529.72;10336727;28;1914;-61
2023/09/20 09:33:32;;;;;;;;;;;;;;;22.94;47.55;95528.06;10343587;28;1929;-61
2023/09/20 09:38:34;;;;;;;;;;;;;;;22.96;47.53;95524.03;10345649;28;1890;-61
2023/09/20 09:43:35;;;;;;;;;;;;;;;22.98;47.33;95526.41;10322291;28;4723;-61
2023/09/20 09:48:37;;;;;;;;;;;;;;;22.98;47.23;95511.31;10352144;28;2573;-61
2023/09/20 09:53:37;;;;;;;;;;;;;;;22.99;47.23;95509.47;10353870;28;1817;-61
2023/09/20 09:58:37;;;;;;;;;;;;;;;22.98;47.16;95510.56;10345207;28;1869;-61
2023/09/20 10:03:40;;;;;;;;;;;;;;;22.99;47.32;95504.97;10352949;28;2539;-61
2023/09/20 10:08:41;;;;;;;;;;;;;;;23.02;47.30;95500.97;10325423;28;1982;-61
2023/09/20 10:13:42;;;;;;;;;;;;;;;23.04;47.49;95498.81;10350063;28;1892;-61
2023/09/20 10:18:51;;;;;;;;;;;;;;;23.02;47.28;95488.50;10337310;28;1942;-61
2023/09/20 10:23:52;;;;;;;;;;;;;;;23.00;46.89;95492.53;10336857;28;1908;-61
2023/09/20 10:28:57;;;;;;;;;;;;;;;23.00;46.95;95476.69;10350307;28;1983;-61
2023/09/20 10:33:57;;;;;;;;;;;;;;;23.00;46.80;95474.78;10346232;28;2049;-61
2023/09/20 10:39:16;;;;;;;;;;;;;;;23.00;46.96;95468.75;10347163;28;1968;-62
2023/09/20 10:44:24;;;;;;;;;;;;;;;23.01;46.79;95462.38;10335847;28;4658;-61
2023/09/20 10:49:45;;;;;;;;;;;;;;;23.01;46.98;95454.44;10344057;28;2933;-61
2023/09/20 10:54:46;;;;;;;;;;;;;;;23.01;46.67;95446.50;10338504;28;1941;-62
2023/09/20 10:59:46;;;;;;;;;;;;;;;23.03;46.90;95436.44;10331657;28;1903;-61
2023/09/20 11:04:48;;;;;;;;;;;;;;;23.04;46.73;95427.44;10342318;28;1911;-61
2023/09/20 11:09:48;;;;;;;;;;;;;;;23.06;46.82;95419.97;10348109;28;2086;-61
2023/09/20 11:14:50;;;;;;;;;;;;;;;23.07;46.95;95418.88;10335517;28;1908;-61
2023/09/20 11:19:53;;;;;;;;;;;;;;;23.07;46.68;95416.25;10342337;28;1904;-61
2023/09/20 11:24:54;;;;;;;;;;;;;;;23.06;46.74;95409.41;10361417;28;1977;-60
2023/09/20 11:30:04;;;;;;;;;;;;;;;23.07;46.82;95405.66;10325071;28;2825;-61
2023/09/20 11:35:06;;;;;;;;;;;;;;;23.10;47.06;95400.56;10367916;28;1901;-61
2023/09/20 11:40:07;;;;;;;;;;;;;;;23.12;47.01;95401.03;10346296;28;1892;-61
2023/09/20 11:45:10;;;;;;;;;;;;;;;23.13;46.84;95393.91;10317641;28;1914;-60
2023/09/20 11:50:12;;;;;;;;;;;;;;;23.12;46.64;95385.19;10335404;28;1870;-61
2023/09/20 11:55:15;;;;;;;;;;;;;;;23.12;46.58;95395.00;10332636;28;2106;-60
2023/09/20 12:00:19;;;;;;;;;;;;;;;23.12;46.78;95384.44;10346412;28;1837;-60
2023/09/20 12:05:21;;;;;;;;;;;;;;;23.14;46.65;95374.31;10347361;28;1898;-60
2023/09/20 12:10:22;;;;;;;;;;;;;;;23.15;46.83;95370.59;10357266;28;1669;-60
2023/09/20 12:15:23;;;;;;;;;;;;;;;23.19;47.02;95358.34;10346887;28;2594;-60
2023/09/20 12:20:24;;;;;;;;;;;;;;;23.21;47.05;95358.81;10342399;28;1676;-60
2023/09/20 12:25:25;;;;;;;;;;;;;;;23.21;47.36;95345.59;10333032;28;1906;-60
2023/09/20 12:30:28;;;;;;;;;;;;;;;23.22;47.18;95347.19;10354970;28;1913;-60
2023/09/20 12:35:30;;;;;;;;;;;;;;;23.23;46.96;95328.34;10322226;28;1533;-61
2023/09/20 12:40:30;;;;;;;;;;;;;;;23.25;47.07;95309.53;10344057;28;4765;-61
2023/09/20 12:45:31;;;;;;;;;;;;;;;23.26;47.06;95319.03;10338444;28;1948;-61
2023/09/20 12:50:36;;;;;;;;;;;;;;;23.28;47.41;95315.03;10327968;28;1489;-61
2023/09/20 12:55:37;;;;;;;;;;;;;;;23.29;47.30;95297.28;10346163;28;1486;-61
2023/09/20 13:00:38;;;;;;;;;;;;;;;23.30;47.17;95290.91;10334218;28;1605;-62
2023/09/20 13:05:38;;;;;;;;;;;;;;;23.30;47.10;95296.22;10344413;28;1910;-61
2023/09/20 13:10:38;;;;;;;;;;;;;;;23.30;47.19;95280.34;10349064;28;1442;-61
2023/09/20 13:15:42;;;;;;;;;;;;;;;23.30;47.11;95273.19;10358257;28;1511;-61
2023/09/20 13:20:42;;;;;;;;;;;;;;;23.31;47.36;95272.09;10347661;28;1617;-61
2023/09/20 13:25:42;;;;;;;;;;;;;;;23.31;47.38;95263.38;10357325;28;1979;-61
2023/09/20 13:30:42;;;;;;;;;;;;;;;23.31;47.23;95247.50;10363764;28;1470;-61
2023/09/20 13:35:43;;;;;;;;;;;;;;;23.32;47.14;95239.31;10363594;28;1894;-60
2023/09/20 13:40:44;;;;;;;;;;;;;;;23.33;47.17;95237.44;10354850;28;4612;-61
2023/09/20 13:45:44;;;;;;;;;;;;;;;23.33;47.44;95234.78;10368530;28;1961;-61
2023/09/20 13:50:45;;;;;;;;;;;;;;;23.36;47.68;95223.63;10343159;28;2271;-61
2023/09/20 13:55:46;;;;;;;;;;;;;;;23.39;47.45;95217.72;10333188;28;1538;-61
2023/09/20 14:00:47;;;;;;;;;;;;;;;23.40;47.46;95216.63;10345335;28;1525;-60
2023/09/20 14:05:47;;;;;;;;;;;;;;;23.40;47.70;95211.34;10342071;28;2924;-60
2023/09/20 14:10:50;;;;;;;;;;;;;;;23.40;47.63;95198.91;10350781;28;1541;-61
2023/09/20 14:15:50;;;;;;;;;;;;;;;23.41;47.65;95189.13;10343769;28;1853;-61
2023/09/20 14:20:51;;;;;;;;;;;;;;;23.42;48.07;95186.16;10335160;28;1947;-60
2023/09/20 14:25:51;;;;;;;;;;;;;;;23.43;47.99;95187.69;10350636;28;2012;-61
2023/09/20 14:30:53;;;;;;;;;;;;;;;23.43;47.94;95184.31;10350211;28;1884;-61
2023/09/20 14:35:56;;;;;;;;;;;;;;;23.44;48.00;95191.13;10349243;28;2016;-61
2023/09/20 14:40:56;;;;;;;;;;;;;;;23.45;48.35;95182.13;10353484;28;4721;-61
2023/09/20 14:45:57;;;;;;;;;;;;;;;23.45;48.20;95168.91;10351033;28;1906;-60
2023/09/20 14:51:01;;;;;;;;;;;;;;;23.46;48.57;95165.16;10347803;28;2702;-61
2023/09/20 14:56:01;;;;;;;;;;;;;;;23.46;48.28;95167.81;10345659;28;2011;-60
2023/09/20 15:01:12;;;;;;;;;;;;;;;23.46;48.33;95162.50;10354090;28;1944;-60
2023/09/20 15:06:16;;;;;;;;;;;;;;;23.47;48.31;95156.16;10316187;28;1980;-61
2023/09/20 15:11:16;;;;;;;;;;;;;;;23.45;48.44;95150.38;10344461;28;1900;-61
2023/09/20 15:16:17;;;;;;;;;;;;;;;23.45;48.36;95147.75;10356818;28;1940;-60
2023/09/20 15:21:17;;;;;;;;;;;;;;;23.43;48.41;95150.66;10355049;28;1948;-60
2023/09/20 15:26:17;;;;;;;;;;;;;;;23.44;48.40;95146.16;10342301;28;2035;-60
2023/09/20 15:31:18;;;;;;;;;;;;;;;23.43;48.33;95126.13;10351846;28;1853;-60
2023/09/20 15:36:20;;;;;;;;;;;;;;;23.42;48.52;95130.63;10342643;28;2712;-61
2023/09/20 15:41:21;;;;;;;;;;;;;;;23.43;48.65;95126.13;10342025;28;4635;-61
2023/09/20 15:46:22;;;;;;;;;;;;;;;23.43;48.36;95118.19;10329293;28;1905;-61
2023/09/20 15:51:22;;;;;;;;;;;;;;;23.43;48.56;95115.53;10353706;28;1829;-60
2023/09/20 15:56:22;;;;;;;;;;;;;;;23.43;48.63;95116.28;10354017;28;1846;-61
2023/09/20 16:01:26;;;;;;;;;;;;;;;23.44;48.91;95109.13;10323397;28;1986;-61
2023/09/20 16:06:27;;;;;;;;;;;;;;;23.43;49.04;95118.94;10342523;28;1902;-60
2023/09/20 16:11:27;;;;;;;;;;;;;;;23.43;49.01;95108.34;10342781;28;2123;-61
2023/09/20 16:16:27;;;;;;;;;;;;;;;23.44;49.14;95103.84;10344264;28;1920;-60
2023/09/20 16:21:28;;;;;;;;;;;;;;;23.43;48.93;95095.13;10343145;28;1873;-60
2023/09/20 16:26:28;;;;;;;;;;;;;;;23.44;49.19;95088.75;10341747;28;2017;-60
2023/09/20 16:31:28;;;;;;;;;;;;;;;23.44;49.31;95086.13;10340612;28;1849;-61
2023/09/20 16:36:28;;;;;;;;;;;;;;;23.44;49.15;95087.97;10336538;28;2352;-60
2023/09/20 16:41:29;;;;;;;;;;;;;;;23.43;49.34;95081.91;10338762;28;4732;-60
2023/09/20 16:46:29;;;;;;;;;;;;;;;23.44;49.45;95088.75;10341900;28;1953;-60
2023/09/20 16:51:29;;;;;;;;;;;;;;;23.44;49.63;95087.97;10338421;28;1943;-59
2023/09/20 16:56:29;;;;;;;;;;;;;;;23.44;49.45;95091.41;10343229;28;1849;-61
2023/09/20 17:01:30;;;;;;;;;;;;;;;23.45;49.50;95084.25;10331826;28;1877;-60
2023/09/20 17:06:30;;;;;;;;;;;;;;;23.46;49.49;95080.50;10344804;28;1976;-60
2023/09/20 17:11:31;;;;;;;;;;;;;;;23.48;49.47;95080.19;10333094;28;1823;-60
2023/09/20 17:16:31;;;;;;;;;;;;;;;23.47;49.65;95087.38;10350893;28;1937;-60
2023/09/20 17:21:31;;;;;;;;;;;;;;;23.50;49.45;95085.97;10341927;28;2432;-60
2023/09/20 17:26:32;;;;;;;;;;;;;;;23.49;49.63;95082.56;10354712;28;1922;-61
2023/09/20 17:31:36;;;;;;;;;;;;;;;23.50;49.86;95078.81;10342231;28;1948;-62
2023/09/20 17:36:38;;;;;;;;;;;;;;;23.50;50.01;95078.81;10346744;28;1920;-61
2023/09/20 17:41:40;;;;;;;;;;;;;;;23.50;49.95;95078.81;10338298;28;1886;-61
2023/09/20 17:46:42;;;;;;;;;;;;;;;23.51;49.91;95082.25;10341388;28;2439;-61
2023/09/20 17:51:42;;;;;;;;;;;;;;;23.51;50.05;95083.03;10341044;28;1887;-61
2023/09/20 17:56:46;;;;;;;;;;;;;;;23.50;50.20;95076.16;10341199;28;1857;-61
2023/09/20 18:01:46;;;;;;;;;;;;;;;23.51;50.38;95074.31;10334220;28;1897;-61
2023/09/20 18:06:46;;;;;;;;;;;;;;;23.51;50.49;95080.38;10346458;28;2616;-61
2023/09/20 18:11:49;;;;;;;;;;;;;;;23.51;50.48;95085.69;10344227;28;1899;-61
2023/09/20 18:16:51;;;;;;;;;;;;;;;23.50;50.64;95081.47;10352621;28;1854;-61
2023/09/20 18:21:53;;;;;;;;;;;;;;;23.52;50.27;95089.06;10324991;28;2134;-61
2023/09/20 18:26:57;;;;;;;;;;;;;;;23.51;50.49;95087.53;10357138;28;1970;-61
2023/09/20 18:31:57;;;;;;;;;;;;;;;23.51;50.57;95088.31;10344253;28;1818;-61
2023/09/20 18:36:57;;;;;;;;;;;;;;;23.51;50.54;95076.94;10309183;28;2029;-61
2023/09/20 18:41:59;;;;;;;;;;;;;;;23.50;50.71;95078.03;10350461;28;4893;-61
2023/09/20 18:46:59;;;;;;;;;;;;;;;23.50;50.88;95081.47;10349530;28;1900;-61
2023/09/20 18:52:00;;;;;;;;;;;;;;;23.49;50.92;95085.22;10338061;28;2408;-61
2023/09/20 18:57:01;;;;;;;;;;;;;;;23.49;50.79;95084.41;10348646;28;1861;-61
2023/09/20 19:02:02;;;;;;;;;;;;;;;23.47;50.85;95083.94;10347149;28;1936;-60
2023/09/20 19:07:02;;;;;;;;;;;;;;;23.48;50.97;95080.19;10351208;28;1954;-61
2023/09/20 19:12:06;;;;;;;;;;;;;;;23.47;50.85;95073.38;10350785;28;1873;-59
2023/09/20 19:17:06;;;;;;;;;;;;;;;23.46;50.83;95069.94;10358084;28;2144;-60
2023/09/20 19:22:08;;;;;;;;;;;;;;;23.47;51.13;95065.44;10365716;28;2023;-60
2023/09/20 19:27:10;;;;;;;;;;;;;;;23.48;51.23;95073.06;10365787;28;1989;-60
2023/09/20 19:32:10;;;;;;;;;;;;;;;23.49;51.26;95060.63;10364674;28;1952;-60
2023/09/20 19:37:12;;;;;;;;;;;;;;;23.50;51.18;95065.59;10354295;28;2534;-60
2023/09/20 19:42:13;;;;;;;;;;;;;;;23.50;51.15;95062.16;10349151;28;1987;-61
2023/09/20 19:47:16;;;;;;;;;;;;;;;23.48;51.29;95057.19;10340812;28;1898;-61
2023/09/20 19:52:17;;;;;;;;;;;;;;;23.50;51.47;95062.16;10358642;28;1902;-60
2023/09/20 19:57:18;;;;;;;;;;;;;;;23.49;51.16;95058.75;10340389;28;1850;-60
2023/09/20 20:02:18;;;;;;;;;;;;;;;23.48;51.21;95054.53;10363412;28;1798;-60
2023/09/20 20:07:19;;;;;;;;;;;;;;;23.49;51.30;95042.09;10370371;28;1914;-60
2023/09/20 20:12:19;;;;;;;;;;;;;;;23.48;51.30;95041.31;10359613;28;1848;-60
2023/09/20 20:17:19;;;;;;;;;;;;;;;23.47;51.28;95039.75;10340918;28;1849;-61
2023/09/20 20:22:20;;;;;;;;;;;;;;;23.45;51.19;95037.41;10369446;28;2426;-62
2023/09/20 20:27:20;;;;;;;;;;;;;;;23.47;51.70;95042.41;10355645;28;1985;-62
2023/09/20 20:32:21;;;;;;;;;;;;;;;23.48;51.62;95027.28;10357534;28;1810;-61
2023/09/20 20:37:21;;;;;;;;;;;;;;;23.48;51.80;95028.09;10347208;28;1858;-61
2023/09/20 20:42:21;;;;;;;;;;;;;;;23.48;51.69;95022.78;10359543;28;4654;-61
2023/09/20 20:47:21;;;;;;;;;;;;;;;23.48;51.63;95012.22;10367847;28;1956;-61
2023/09/20 20:52:22;;;;;;;;;;;;;;;23.51;52.18;95003.66;10356013;28;2049;-59
2023/09/20 20:57:22;;;;;;;;;;;;;;;23.51;51.95;95014.25;10342669;28;1887;-61
2023/09/20 21:02:22;;;;;;;;;;;;;;;23.49;51.86;95011.13;10355715;28;1824;-61
2023/09/20 21:07:23;;;;;;;;;;;;;;;23.49;51.67;95005.06;10338574;28;2426;-61
2023/09/20 21:12:23;;;;;;;;;;;;;;;23.50;51.89;95010.03;10339105;28;1962;-61
2023/09/20 21:17:24;;;;;;;;;;;;;;;23.50;51.97;95010.03;10351755;28;1960;-61
2023/09/20 21:22:25;;;;;;;;;;;;;;;23.50;51.99;95003.97;10348656;28;1890;-61
2023/09/20 21:27:25;;;;;;;;;;;;;;;23.51;51.88;94997.59;10349507;28;1977;-62
2023/09/20 21:32:25;;;;;;;;;;;;;;;23.52;52.22;94989.34;10336071;28;1886;-61
2023/09/20 21:37:26;;;;;;;;;;;;;;;23.51;52.21;94979.88;10341328;28;1875;-61
2023/09/20 21:42:26;;;;;;;;;;;;;;;23.50;51.99;94994.16;10349438;28;4651;-61
2023/09/20 21:47:27;;;;;;;;;;;;;;;23.49;51.97;94989.97;10353935;28;1923;-61
2023/09/20 21:52:27;;;;;;;;;;;;;;;23.50;52.15;94986.22;10350159;28;2352;-61
2023/09/20 21:57:27;;;;;;;;;;;;;;;23.50;52.26;94990.72;10347013;28;2032;-61
2023/09/20 22:02:28;;;;;;;;;;;;;;;23.50;52.17;94996.03;10346103;28;1987;-60
2023/09/20 22:07:28;;;;;;;;;;;;;;;23.49;51.80;95000.56;10357219;28;1961;-61
2023/09/20 22:12:28;;;;;;;;;;;;;;;23.48;51.91;94996.34;10348410;28;1838;-61
2023/09/20 22:17:28;;;;;;;;;;;;;;;23.49;51.97;94994.47;10344005;28;1901;-61
2023/09/20 22:22:29;;;;;;;;;;;;;;;23.48;52.06;94991.06;10347193;28;1989;-61
2023/09/20 22:27:29;;;;;;;;;;;;;;;23.48;52.05;94982.31;10349134;28;1948;-61
2023/09/20 22:32:33;;;;;;;;;;;;;;;23.47;52.09;94978.16;10352586;28;1876;-61
2023/09/20 22:37:33;;;;;;;;;;;;;;;23.47;52.01;94970.22;10354545;28;2448;-61
2023/09/20 22:42:34;;;;;;;;;;;;;;;23.45;52.00;94968.63;10350756;28;4611;-61
2023/09/20 22:47:34;;;;;;;;;;;;;;;23.45;52.00;94958.06;10346710;28;1956;-61
2023/09/20 22:52:34;;;;;;;;;;;;;;;23.44;51.80;94955.72;10345355;28;1915;-61
2023/09/20 22:57:34;;;;;;;;;;;;;;;23.44;51.92;94953.88;10347618;28;1889;-61
2023/09/20 23:02:35;;;;;;;;;;;;;;;23.43;52.01;94954.94;10337487;28;1951;-61
2023/09/20 23:07:37;;;;;;;;;;;;;;;23.43;51.59;94954.19;10349442;28;1914;-61
2023/09/20 23:12:39;;;;;;;;;;;;;;;23.43;51.89;94949.66;10343739;28;2137;-61
2023/09/20 23:17:40;;;;;;;;;;;;;;;23.42;51.56;94956.03;10343548;28;1880;-61
2023/09/20 23:22:40;;;;;;;;;;;;;;;23.42;51.75;94947.31;10350248;28;1813;-61
2023/09/20 23:27:44;;;;;;;;;;;;;;;23.42;51.92;94952.63;10345679;28;2032;-61
2023/09/20 23:32:44;;;;;;;;;;;;;;;23.42;51.66;94947.31;10346519;28;1893;-61
2023/09/20 23:37:48;;;;;;;;;;;;;;;23.41;51.84;94940.50;10339650;28;2521;-61
2023/09/20 23:42:53;;;;;;;;;;;;;;;23.40;51.65;94934.41;10325986;28;4608;-62
2023/09/20 23:47:54;;;;;;;;;;;;;;;23.40;51.64;94928.34;10351264;28;1910;-61
2023/09/20 23:52:54;;;;;;;;;;;;;;;23.42;51.64;94936.75;10353531;28;1898;-61
2023/09/20 23:57:54;;;;;;;;;;;;;;;23.40;51.67;94934.41;10343124;28;1834;-61
